createdAt,value
2023-01-30T00:01:31.906Z,101143.91
2023-01-30T00:04:35.833Z,101200.03
2023-01-30T00:07:41.825Z,101190.25
2023-01-30T00:10:46.513Z,101186.19
2023-01-30T00:13:54.767Z,101194.00
2023-01-30T00:16:59.051Z,101198.28
2023-01-30T00:20:07.516Z,101194.06
2023-01-30T00:23:13.509Z,101176.63
2023-01-30T00:26:19.549Z,101187.38
2023-01-30T00:29:27.677Z,101204.09
2023-01-30T00:32:34.055Z,101204.78
2023-01-30T00:35:45.267Z,101209.38
2023-01-30T00:38:51.819Z,101207.81
2023-01-30T00:42:18.444Z,101217.03
2023-01-30T00:45:45.993Z,101214.50
2023-01-30T00:48:51.611Z,101212.75
2023-01-30T00:51:57.607Z,101218.75
2023-01-30T00:55:01.520Z,101222.13
2023-01-30T00:58:10.247Z,101212.56
2023-01-30T01:01:16.263Z,101203.47
2023-01-30T01:04:20.759Z,101202.38
2023-01-30T01:07:24.919Z,101208.50
2023-01-30T01:10:31.564Z,101191.66
2023-01-30T01:13:37.358Z,101182.16
2023-01-30T01:16:45.928Z,101193.38
2023-01-30T01:19:51.693Z,101154.59
2023-01-30T01:22:58.216Z,101172.59
2023-01-30T01:26:04.029Z,101166.75
2023-01-30T01:29:16.975Z,101177.53
2023-01-30T01:32:23.646Z,101179.66
2023-01-30T01:35:29.962Z,101178.09
2023-01-30T01:38:36.026Z,101151.28
2023-01-30T01:41:42.154Z,101118.38
2023-01-30T01:45:15.719Z,101162.03
2023-01-30T01:48:37.978Z,101160.03
2023-01-30T01:52:09.352Z,101152.72
2023-01-30T01:55:21.841Z,101133.38
2023-01-30T01:58:37.265Z,101120.44
2023-01-30T02:01:52.186Z,101147.13
2023-01-30T02:05:03.836Z,101126.31
2023-01-30T02:08:14.785Z,101134.59
2023-01-30T02:11:23.466Z,101159.25
2023-01-30T02:14:30.297Z,101140.28
2023-01-30T02:17:39.659Z,101140.81
2023-01-30T02:21:03.031Z,101130.78
2023-01-30T02:24:45.807Z,101132.28
2023-01-30T02:28:13.799Z,101133.31
2023-01-30T02:31:23.807Z,101124.19
2023-01-30T02:34:35.113Z,101130.91
2023-01-30T02:37:56.403Z,101124.34
2023-01-30T02:41:20.538Z,101120.72
2023-01-30T02:44:41.029Z,101097.53
2023-01-30T02:47:51.026Z,101111.97
2023-01-30T02:51:08.701Z,101108.69
2023-01-30T02:54:21.570Z,101101.88
2023-01-30T02:57:28.114Z,101092.00
2023-01-30T03:01:04.681Z,101084.66
2023-01-30T03:04:45.758Z,101077.06
2023-01-30T03:08:05.181Z,101086.53
2023-01-30T03:11:12.222Z,101071.91
2023-01-30T03:14:31.745Z,101070.78
2023-01-30T03:17:37.783Z,101033.56
2023-01-30T03:20:45.648Z,101075.22
2023-01-30T03:23:53.992Z,101012.38
2023-01-30T03:27:11.654Z,101040.72
2023-01-30T03:30:23.761Z,101046.16
2023-01-30T03:33:32.110Z,101030.63
2023-01-30T03:36:38.485Z,101030.00
2023-01-30T03:39:53.995Z,101018.44
2023-01-30T03:43:00.209Z,101019.56
2023-01-30T03:46:07.304Z,101007.06
2023-01-30T03:49:16.350Z,101003.56
2023-01-30T03:52:26.977Z,101018.78
2023-01-30T03:55:35.809Z,101005.44
2023-01-30T03:58:42.001Z,101022.56
2023-01-30T04:02:02.379Z,100999.16
2023-01-30T04:05:08.719Z,101000.28
2023-01-30T04:08:15.820Z,100999.56
2023-01-30T04:11:23.014Z,101002.47
2023-01-30T04:14:27.797Z,100990.22
2023-01-30T04:18:06.420Z,101000.59
2023-01-30T04:21:26.044Z,100997.88
2023-01-30T04:24:31.981Z,100979.16
2023-01-30T04:27:37.853Z,100950.88
2023-01-30T04:30:57.095Z,100978.09
2023-01-30T04:34:17.865Z,100937.19
2023-01-30T04:37:23.761Z,100975.50
2023-01-30T04:40:28.016Z,100969.16
2023-01-30T04:43:35.563Z,100962.78
2023-01-30T04:46:57.265Z,100979.88
2023-01-30T04:50:03.794Z,100916.63
2023-01-30T04:53:10.390Z,100965.13
2023-01-30T04:56:16.875Z,100960.06
2023-01-30T04:59:23.482Z,100928.81
2023-01-30T05:02:30.684Z,100975.38
2023-01-30T05:05:35.156Z,100953.41
2023-01-30T05:08:45.363Z,100959.38
2023-01-30T05:11:53.394Z,100967.34
2023-01-30T05:14:59.618Z,100962.91
2023-01-30T05:18:05.549Z,100982.81
2023-01-30T05:21:33.411Z,100975.19
2023-01-30T05:24:39.581Z,100989.50
2023-01-30T05:27:45.283Z,100908.34
2023-01-30T05:30:51.044Z,100966.00
2023-01-30T05:33:56.757Z,100988.66
2023-01-30T05:37:05.190Z,100958.41
2023-01-30T05:40:12.497Z,100954.09
2023-01-30T05:43:18.541Z,100967.09
2023-01-30T05:46:24.454Z,100977.25
2023-01-30T05:49:30.502Z,100966.84
2023-01-30T05:52:36.897Z,100970.69
2023-01-30T05:55:44.485Z,100941.41
2023-01-30T05:58:56.640Z,100960.41
2023-01-30T06:02:05.434Z,100953.19
2023-01-30T06:05:13.394Z,100961.19
2023-01-30T06:08:19.339Z,100985.63
2023-01-30T06:11:25.844Z,100989.38
2023-01-30T06:14:31.553Z,100973.78
2023-01-30T06:17:37.564Z,101005.06
2023-01-30T06:20:42.281Z,100949.53
2023-01-30T06:24:09.530Z,100840.75
2023-01-30T06:27:27.255Z,101003.44
2023-01-30T06:30:32.966Z,100979.72
2023-01-30T06:33:38.821Z,101007.78
2023-01-30T06:36:45.016Z,101010.44
2023-01-30T06:39:52.068Z,100997.28
2023-01-30T06:42:57.818Z,100989.47
2023-01-30T06:46:04.179Z,101020.81
2023-01-30T06:49:11.978Z,101025.06
2023-01-30T06:52:22.710Z,100970.13
2023-01-30T06:55:29.948Z,101004.34
2023-01-30T06:58:44.188Z,101029.88
2023-01-30T07:01:50.401Z,101004.25
2023-01-30T07:04:59.333Z,101031.34
2023-01-30T07:08:07.107Z,101028.16
2023-01-30T07:11:12.976Z,101021.56
2023-01-30T07:14:19.181Z,101026.63
2023-01-30T07:17:30.816Z,101018.66
2023-01-30T07:20:44.146Z,100991.72
2023-01-30T07:23:55.465Z,101035.22
2023-01-30T07:27:01.490Z,101016.25
2023-01-30T07:30:07.951Z,101004.38
2023-01-30T07:33:13.638Z,101018.00
2023-01-30T07:36:19.928Z,101006.63
2023-01-30T07:39:25.603Z,101022.16
2023-01-30T07:42:31.311Z,100969.13
2023-01-30T07:45:43.948Z,101064.88
2023-01-30T07:48:49.696Z,101072.50
2023-01-30T07:51:55.464Z,101076.53
2023-01-30T07:55:01.394Z,101049.50
2023-01-30T07:58:09.476Z,101086.22
2023-01-30T08:01:15.650Z,101062.19
2023-01-30T08:04:21.421Z,101082.16
2023-01-30T08:07:27.303Z,101102.72
2023-01-30T08:10:32.999Z,101093.13
2023-01-30T08:13:39.556Z,101101.13
2023-01-30T08:16:45.182Z,101082.34
2023-01-30T08:19:51.104Z,101067.25
2023-01-30T08:22:57.831Z,101035.19
2023-01-30T08:26:04.722Z,101097.91
2023-01-30T08:29:09.774Z,101120.88
2023-01-30T08:32:18.967Z,101056.41
2023-01-30T08:35:25.245Z,101098.78
2023-01-30T08:38:33.996Z,101081.06
2023-01-30T08:41:46.065Z,101086.75
2023-01-30T08:44:51.884Z,101110.72
2023-01-30T08:48:02.287Z,101106.06
2023-01-30T08:51:06.316Z,101086.91
2023-01-30T08:54:13.947Z,101114.88
2023-01-30T08:57:21.273Z,101092.91
2023-01-30T09:00:28.144Z,101094.47
2023-01-30T09:03:37.071Z,101065.69
2023-01-30T09:06:42.877Z,101107.56
2023-01-30T09:09:49.360Z,101102.84
2023-01-30T09:12:55.007Z,101099.34
2023-01-30T09:16:00.793Z,101082.16
2023-01-30T09:19:06.506Z,101059.69
2023-01-30T09:22:14.661Z,101124.63
2023-01-30T09:25:20.442Z,101116.31
2023-01-30T09:28:27.219Z,101114.00
2023-01-30T09:31:31.802Z,101094.31
2023-01-30T09:34:38.117Z,101118.63
2023-01-30T09:37:51.885Z,101118.50
2023-01-30T09:41:20.518Z,101091.19
2023-01-30T09:45:00.807Z,101134.06
2023-01-30T09:48:33.163Z,101125.91
2023-01-30T09:52:32.004Z,101132.78
2023-01-30T09:55:42.817Z,100975.44
2023-01-30T09:59:04.189Z,101134.00
2023-01-30T10:02:45.589Z,101136.69
2023-01-30T10:05:59.524Z,101126.34
2023-01-30T10:09:15.371Z,101100.09
2023-01-30T10:12:29.673Z,101143.63
2023-01-30T10:15:40.996Z,101131.53
2023-01-30T10:19:01.028Z,101142.94
2023-01-30T10:22:37.851Z,101141.72
2023-01-30T10:25:49.515Z,101145.75
2023-01-30T10:29:31.271Z,101150.63
2023-01-30T10:32:47.872Z,101155.81
2023-01-30T10:36:19.723Z,101099.09
2023-01-30T10:39:54.957Z,101147.53
2023-01-30T10:43:21.673Z,101143.59
2023-01-30T10:47:11.768Z,101144.06
2023-01-30T10:50:24.755Z,101152.75
2023-01-30T10:53:46.013Z,101157.53
2023-01-30T10:57:04.144Z,101161.63
2023-01-30T11:00:50.539Z,101130.28
2023-01-30T11:04:17.368Z,101147.06
2023-01-30T11:07:25.670Z,101154.75
2023-01-30T11:10:33.433Z,101145.69
2023-01-30T11:13:39.269Z,101141.56
2023-01-30T11:16:52.776Z,101157.75
2023-01-30T11:20:11.264Z,101129.72
2023-01-30T11:23:30.529Z,101146.78
2023-01-30T11:26:47.227Z,101142.34
2023-01-30T11:30:11.881Z,101105.03
2023-01-30T11:33:21.424Z,101139.53
2023-01-30T11:36:34.265Z,101152.56
2023-01-30T11:39:53.871Z,101123.03
2023-01-30T11:43:04.704Z,101154.19
2023-01-30T11:46:15.680Z,101150.91
2023-01-30T11:49:47.269Z,101154.88
2023-01-30T11:52:51.346Z,101144.56
2023-01-30T11:56:05.698Z,101133.59
2023-01-30T11:59:31.861Z,101154.16
2023-01-30T12:02:39.855Z,101131.03
2023-01-30T12:05:49.171Z,101155.44
2023-01-30T12:08:57.081Z,101128.44
2023-01-30T12:12:03.268Z,101139.09
2023-01-30T12:15:24.913Z,101170.69
2023-01-30T12:18:38.198Z,101167.81
2023-01-30T12:22:11.614Z,101166.00
2023-01-30T12:25:33.638Z,101181.69
2023-01-30T12:29:05.181Z,101169.66
2023-01-30T12:32:21.029Z,101167.09
2023-01-30T12:35:34.854Z,101172.91
2023-01-30T12:38:57.023Z,101162.88
2023-01-30T12:42:01.030Z,101165.28
2023-01-30T12:45:21.584Z,101165.25
2023-01-30T12:49:10.120Z,101109.19
2023-01-30T12:52:43.039Z,101165.50
2023-01-30T12:56:14.078Z,101070.69
2023-01-30T12:59:56.579Z,101177.81
2023-01-30T13:03:06.467Z,101172.63
2023-01-30T13:06:24.046Z,101177.25
2023-01-30T13:09:50.728Z,101172.03
2023-01-30T13:13:23.480Z,101181.56
2023-01-30T13:16:39.943Z,101172.94
2023-01-30T13:20:07.365Z,101181.09
2023-01-30T13:23:45.507Z,101183.66
2023-01-30T13:26:54.233Z,101182.03
2023-01-30T13:30:02.700Z,101111.41
2023-01-30T13:33:15.148Z,101182.63
2023-01-30T13:36:27.815Z,101187.75
2023-01-30T13:39:58.488Z,101184.91
2023-01-30T13:43:11.019Z,101172.19
2023-01-30T13:46:27.541Z,101106.25
2023-01-30T13:50:24.791Z,101170.88
2023-01-30T13:53:40.763Z,101169.66
2023-01-30T13:57:02.349Z,101167.25
2023-01-30T14:00:26.045Z,101158.31
2023-01-30T14:03:32.953Z,101178.88
2023-01-30T14:06:40.915Z,101154.28
2023-01-30T14:10:10.084Z,101171.50
2023-01-30T14:13:18.547Z,101170.63
2023-01-30T14:16:25.757Z,101179.97
2023-01-30T14:19:39.805Z,101166.97
2023-01-30T14:22:59.457Z,101144.22
2023-01-30T14:26:05.313Z,101138.41
2023-01-30T14:29:12.448Z,101130.94
2023-01-30T14:32:21.528Z,101153.34
2023-01-30T14:35:33.193Z,101152.81
2023-01-30T14:38:41.539Z,101149.31
2023-01-30T14:42:21.869Z,101139.84
2023-01-30T14:49:29.334Z,101138.66
2023-01-30T14:52:42.945Z,101144.59
2023-01-30T14:56:01.464Z,101086.41
2023-01-30T14:59:18.340Z,101139.66
2023-01-30T15:02:31.056Z,101145.97
2023-01-30T15:05:45.431Z,101149.34
2023-01-30T15:08:51.812Z,101131.03
2023-01-30T15:12:37.327Z,101134.66
2023-01-30T15:16:04.815Z,101123.34
2023-01-30T15:19:37.540Z,101132.63
2023-01-30T15:23:13.809Z,101126.13
2023-01-30T15:27:02.208Z,101115.75
2023-01-30T15:30:20.069Z,101121.03
2023-01-30T15:33:32.179Z,101124.91
2023-01-30T15:36:39.748Z,101122.88
2023-01-30T15:39:46.252Z,101107.22
2023-01-30T15:43:13.447Z,101129.47
2023-01-30T15:46:44.728Z,101136.88
2023-01-30T15:50:06.969Z,101133.97
2023-01-30T15:53:16.068Z,101108.56
2023-01-30T15:56:25.646Z,101115.81
2023-01-30T15:59:36.961Z,101151.91
2023-01-30T16:02:45.168Z,101104.63
2023-01-30T16:05:53.439Z,101131.13
2023-01-30T16:09:19.305Z,101141.88
2023-01-30T16:12:31.811Z,101116.44
2023-01-30T16:15:55.369Z,101147.25
2023-01-30T16:19:03.425Z,101123.84
2023-01-30T16:22:20.199Z,101055.53
2023-01-30T16:25:35.115Z,101144.88
2023-01-30T16:28:41.561Z,101156.59
2023-01-30T16:31:49.914Z,101153.09
2023-01-30T16:35:29.184Z,101149.59
2023-01-30T16:38:45.849Z,101088.06
2023-01-30T16:42:02.098Z,101141.00
2023-01-30T16:45:14.027Z,101140.69
2023-01-30T16:48:31.497Z,101139.66
2023-01-30T16:51:38.296Z,101144.72
2023-01-30T16:55:06.236Z,101128.28
2023-01-30T16:58:18.439Z,101153.72
2023-01-30T17:01:36.917Z,101162.28
2023-01-30T17:04:44.011Z,101137.22
2023-01-30T17:07:53.008Z,101148.31
2023-01-30T17:11:03.874Z,101142.28
2023-01-30T17:14:32.199Z,101141.31
2023-01-30T17:17:39.042Z,101138.41
2023-01-30T17:20:48.553Z,101145.53
2023-01-30T17:23:58.735Z,101110.38
2023-01-30T17:27:05.468Z,101138.47
2023-01-30T17:30:19.999Z,101146.06
2023-01-30T17:33:27.171Z,101156.59
2023-01-30T17:36:32.983Z,101165.13
2023-01-30T17:39:38.841Z,101158.09
2023-01-30T17:42:44.582Z,101168.47
2023-01-30T17:45:52.961Z,101165.81
2023-01-30T17:48:57.224Z,101147.34
2023-01-30T17:52:03.334Z,101154.31
2023-01-30T17:55:13.798Z,101157.78
2023-01-30T17:58:20.606Z,101163.69
2023-01-30T18:01:24.741Z,101141.31
2023-01-30T18:04:30.456Z,101132.78
2023-01-30T18:07:37.624Z,101152.34
2023-01-30T18:10:43.319Z,101160.34
2023-01-30T18:13:49.574Z,101164.91
2023-01-30T18:17:00.814Z,101144.78
2023-01-30T18:20:07.008Z,101163.31
2023-01-30T18:23:12.654Z,101121.72
2023-01-30T18:26:20.094Z,101132.16
2023-01-30T18:29:26.244Z,101121.97
2023-01-30T18:32:35.231Z,101112.78
2023-01-30T18:35:41.395Z,101110.66
2023-01-30T18:38:47.671Z,101119.72
2023-01-30T18:41:53.339Z,101082.16
2023-01-30T18:44:59.201Z,101111.13
2023-01-30T18:48:05.291Z,101121.84
2023-01-30T18:51:21.976Z,101123.16
2023-01-30T18:54:28.076Z,101117.84
2023-01-30T18:57:34.321Z,101060.88
2023-01-30T19:00:38.243Z,101108.03
2023-01-30T19:03:43.230Z,101130.00
2023-01-30T19:06:48.952Z,101120.94
2023-01-30T19:09:54.792Z,101132.72
2023-01-30T19:13:19.378Z,101119.78
2023-01-30T19:16:28.172Z,101108.22
2023-01-30T19:19:33.971Z,101100.38
2023-01-30T19:22:38.488Z,101078.00
2023-01-30T19:25:46.825Z,101085.81
2023-01-30T19:28:52.953Z,101111.66
2023-01-30T19:31:58.718Z,101107.66
2023-01-30T19:35:04.873Z,101113.38
2023-01-30T19:38:11.654Z,101107.28
2023-01-30T19:41:25.148Z,101118.19
2023-01-30T19:44:30.783Z,101099.84
2023-01-30T19:47:36.606Z,101104.16
2023-01-30T19:50:43.137Z,101081.91
2023-01-30T19:53:54.501Z,101099.84
2023-01-30T19:57:02.534Z,101099.22
2023-01-30T20:00:11.820Z,101086.56
2023-01-30T20:03:20.313Z,101094.22
2023-01-30T20:06:27.691Z,101104.88
2023-01-30T20:09:34.248Z,101117.81
2023-01-30T20:12:39.723Z,101081.50
2023-01-30T20:15:45.729Z,101099.06
2023-01-30T20:18:56.938Z,100989.78
2023-01-30T20:22:07.639Z,101096.69
2023-01-30T20:25:13.387Z,101097.97
2023-01-30T20:28:20.032Z,101092.88
2023-01-30T20:31:26.734Z,101120.88
2023-01-30T20:34:34.629Z,101078.38
2023-01-30T20:37:40.074Z,101081.53
2023-01-30T20:40:48.692Z,101092.00
2023-01-30T20:43:58.037Z,101090.66
2023-01-30T20:47:04.569Z,101082.88
2023-01-30T20:50:14.356Z,101079.59
2023-01-30T20:53:21.513Z,101072.31
2023-01-30T20:56:31.796Z,101053.06
2023-01-30T20:59:38.391Z,101063.84
2023-01-30T21:02:46.274Z,101077.22
2023-01-30T21:06:00.156Z,101040.63
2023-01-30T21:09:07.661Z,101077.34
2023-01-30T21:12:14.578Z,101048.53
2023-01-30T21:15:20.662Z,101044.19
2023-01-30T21:18:29.835Z,101060.47
2023-01-30T21:21:37.109Z,101071.63
2023-01-30T21:24:43.209Z,101047.66
2023-01-30T21:27:48.684Z,101065.25
2023-01-30T21:30:55.100Z,101054.75
2023-01-30T21:34:01.312Z,101046.88
2023-01-30T21:37:25.831Z,101083.78
2023-01-30T21:40:49.898Z,101056.50
2023-01-30T21:43:56.364Z,101076.00
2023-01-30T21:47:02.365Z,101080.69
2023-01-30T21:50:09.106Z,101071.75
2023-01-30T21:53:16.859Z,101087.38
2023-01-30T21:56:24.257Z,101091.91
2023-01-30T21:59:34.768Z,101089.84
2023-01-30T22:02:41.233Z,101094.66
2023-01-30T22:05:58.590Z,101082.78
2023-01-30T22:09:11.179Z,101100.00
2023-01-30T22:12:25.924Z,101101.03
2023-01-30T22:15:44.208Z,101100.88
2023-01-30T22:19:01.704Z,101098.97
2023-01-30T22:22:27.960Z,101072.91
2023-01-30T22:25:41.650Z,101074.25
2023-01-30T22:28:58.435Z,101017.84
2023-01-30T22:32:09.628Z,101061.72
2023-01-30T22:35:21.380Z,101085.41
2023-01-30T22:38:33.737Z,101105.19
2023-01-30T22:41:44.007Z,101037.91
2023-01-30T22:44:57.056Z,101093.50
2023-01-30T22:48:06.845Z,101035.00
2023-01-30T22:51:24.730Z,101099.44
2023-01-30T22:54:30.867Z,101094.94
2023-01-30T22:57:37.041Z,101078.22
2023-01-30T23:00:43.497Z,101104.50
2023-01-30T23:03:55.329Z,101110.59
2023-01-30T23:07:01.277Z,101077.84
2023-01-30T23:10:07.705Z,101096.53
2023-01-30T23:13:17.580Z,101094.25
2023-01-30T23:16:32.804Z,101112.84
2023-01-30T23:19:38.441Z,101105.22
2023-01-30T23:22:51.949Z,101104.91
2023-01-30T23:25:57.560Z,101072.06
2023-01-30T23:29:09.868Z,101124.88
2023-01-30T23:32:16.405Z,101098.25
2023-01-30T23:35:20.734Z,101108.19
2023-01-30T23:38:28.286Z,101109.19
2023-01-30T23:41:37.004Z,101093.97
2023-01-30T23:44:43.118Z,101096.59
2023-01-30T23:47:48.829Z,101125.09
2023-01-30T23:50:54.698Z,101125.91
2023-01-30T23:54:01.024Z,101129.25
2023-01-30T23:57:06.723Z,101125.38
